createdAt,value
2023-10-28T00:00:48.668Z,97773.56
2023-10-28T00:01:50.272Z,97775.69
2023-10-28T00:02:51.983Z,97781.28
2023-10-28T00:03:53.692Z,97784.22
2023-10-28T00:04:55.329Z,97785.56
2023-10-28T00:05:56.908Z,97788.22
2023-10-28T00:06:58.505Z,97779.97
2023-10-28T00:08:00.365Z,97783.72
2023-10-28T00:09:02.009Z,97782.91
2023-10-28T00:10:04.258Z,97789.81
2023-10-28T00:11:07.658Z,97785.03
2023-10-28T00:12:14.017Z,97789.03
2023-10-28T00:13:15.622Z,97790.63
2023-10-28T00:14:18.782Z,97788.22
2023-10-28T00:15:20.358Z,97796.22
2023-10-28T00:16:22.007Z,97797.81
2023-10-28T00:17:25.280Z,97797.56
2023-10-28T00:18:26.967Z,97801.06
2023-10-28T00:19:30.340Z,97802.94
2023-10-28T00:20:32.292Z,97804.81
2023-10-28T00:21:33.968Z,97798.19
2023-10-28T00:22:35.644Z,97795.81
2023-10-28T00:23:37.439Z,97793.16
2023-10-28T00:24:39.008Z,97789.69
2023-10-28T00:25:40.910Z,97799.00
2023-10-28T00:26:42.520Z,97798.72
2023-10-28T00:27:44.553Z,97808.84
2023-10-28T00:28:46.454Z,97807.00
2023-10-28T00:29:53.314Z,97807.78
2023-10-28T00:30:55.107Z,97804.88
2023-10-28T00:31:56.734Z,97803.81
2023-10-28T00:33:01.166Z,97795.81
2023-10-28T00:34:02.860Z,97809.91
2023-10-28T00:35:08.658Z,97804.84
2023-10-28T00:36:12.331Z,97798.19
2023-10-28T00:37:14.139Z,97802.72
2023-10-28T00:38:15.735Z,97802.72
2023-10-28T00:39:17.798Z,97797.41
2023-10-28T00:40:19.769Z,97803.00
2023-10-28T00:41:21.651Z,97804.84
2023-10-28T00:42:23.366Z,97795.53
2023-10-28T00:43:25.386Z,97800.34
2023-10-28T00:44:26.955Z,97794.50
2023-10-28T00:45:28.909Z,97793.97
2023-10-28T00:46:30.758Z,97796.38
2023-10-28T00:47:34.854Z,97791.28
2023-10-28T00:48:36.567Z,97798.47
2023-10-28T00:49:38.183Z,97808.06
2023-10-28T00:50:40.081Z,97805.41
2023-10-28T00:51:42.351Z,97798.47
2023-10-28T00:52:51.993Z,97804.06
2023-10-28T00:53:53.865Z,97810.19
2023-10-28T00:54:57.764Z,97806.19
2023-10-28T00:56:00.705Z,97800.06
2023-10-28T00:57:03.122Z,97795.00
2023-10-28T00:58:04.948Z,97796.59
2023-10-28T00:59:07.813Z,97800.88
2023-10-28T01:00:11.807Z,97802.47
2023-10-28T01:01:15.218Z,97800.34
2023-10-28T01:02:18.953Z,97803.81
2023-10-28T01:03:20.725Z,97803.00
2023-10-28T01:04:22.469Z,97804.06
2023-10-28T01:05:24.147Z,97805.66
2023-10-28T01:06:25.766Z,97806.97
2023-10-28T01:07:28.214Z,97810.97
2023-10-28T01:08:29.778Z,97817.63
2023-10-28T01:09:31.441Z,97801.94
2023-10-28T01:10:34.752Z,97804.59
2023-10-28T01:11:42.570Z,97800.59
2023-10-28T01:12:44.171Z,97797.69
2023-10-28T01:13:45.846Z,97798.50
2023-10-28T01:14:47.482Z,97799.56
2023-10-28T01:15:49.114Z,97803.00
2023-10-28T01:16:50.766Z,97802.47
2023-10-28T01:17:52.434Z,97800.88
2023-10-28T01:18:56.576Z,97791.28
2023-10-28T01:19:59.168Z,97801.69
2023-10-28T01:21:09.662Z,97801.94
2023-10-28T01:22:11.247Z,97805.13
2023-10-28T01:23:13.002Z,97806.19
2023-10-28T01:24:14.573Z,97808.31
2023-10-28T01:25:16.219Z,97805.41
2023-10-28T01:26:18.059Z,97800.88
2023-10-28T01:27:20.408Z,97803.00
2023-10-28T01:28:22.146Z,97789.41
2023-10-28T01:29:25.963Z,97789.97
2023-10-28T01:30:28.167Z,97789.16
2023-10-28T01:31:29.956Z,97795.56
2023-10-28T01:32:31.815Z,97804.09
2023-10-28T01:33:33.453Z,97805.13
2023-10-28T01:34:48.452Z,97807.28
2023-10-28T01:35:50.162Z,97802.47
2023-10-28T01:36:51.983Z,97805.66
2023-10-28T01:37:53.677Z,97801.94
2023-10-28T01:38:55.353Z,97799.25
2023-10-28T01:39:57.890Z,97793.69
2023-10-28T01:40:59.510Z,97789.16
2023-10-28T01:42:01.126Z,97782.22
2023-10-28T01:43:03.115Z,97790.47
2023-10-28T01:44:05.139Z,97786.22
2023-10-28T01:45:08.452Z,97783.56
2023-10-28T01:46:10.007Z,97785.94
2023-10-28T01:47:11.684Z,97785.94
2023-10-28T01:48:14.897Z,97785.38
2023-10-28T01:49:16.538Z,97789.63
2023-10-28T01:50:21.646Z,97793.88
2023-10-28T01:51:23.441Z,97800.00
2023-10-28T01:52:25.484Z,97793.88
2023-10-28T01:53:31.646Z,97801.31
2023-10-28T01:54:34.429Z,97806.38
2023-10-28T01:55:36.073Z,97805.06
2023-10-28T01:56:38.054Z,97813.31
2023-10-28T01:57:40.429Z,97818.38
2023-10-28T01:58:42.005Z,97830.91
2023-10-28T01:59:45.041Z,97839.16
2023-10-28T02:00:46.933Z,97857.53
2023-10-28T02:01:48.495Z,97850.38
2023-10-28T02:02:51.857Z,97855.44
2023-10-28T02:03:54.431Z,97855.16
2023-10-28T02:04:56.161Z,97855.72
2023-10-28T02:05:57.726Z,97844.53
2023-10-28T02:07:00.023Z,97848.50
2023-10-28T02:08:01.642Z,97841.34
2023-10-28T02:09:04.190Z,97849.59
2023-10-28T02:10:06.487Z,97849.31
2023-10-28T02:11:08.637Z,97855.44
2023-10-28T02:12:10.269Z,97862.09
2023-10-28T02:13:14.002Z,97875.94
2023-10-28T02:14:15.950Z,97875.69
2023-10-28T02:15:17.897Z,97874.88
2023-10-28T02:16:19.950Z,97874.09
2023-10-28T02:17:21.519Z,97878.09
2023-10-28T02:18:24.098Z,97871.69
2023-10-28T02:19:25.956Z,97863.19
2023-10-28T02:20:29.508Z,97872.75
2023-10-28T02:21:31.113Z,97873.00
2023-10-28T02:22:33.105Z,97875.44
2023-10-28T02:23:34.732Z,97867.97
2023-10-28T02:24:36.341Z,97873.81
2023-10-28T02:25:37.902Z,97865.56
2023-10-28T02:26:39.564Z,97876.22
2023-10-28T02:27:41.174Z,97864.22
2023-10-28T02:28:42.771Z,97867.16
2023-10-28T02:29:44.537Z,97871.69
2023-10-28T02:30:46.297Z,97867.41
2023-10-28T02:31:48.195Z,97876.72
2023-10-28T02:32:49.875Z,97875.91
2023-10-28T02:33:51.599Z,97866.81
2023-10-28T02:34:53.322Z,97854.84
2023-10-28T02:35:54.879Z,97856.72
2023-10-28T02:36:56.519Z,97852.72
2023-10-28T02:37:58.194Z,97855.69
2023-10-28T02:39:01.261Z,97854.63
2023-10-28T02:40:03.741Z,97850.91
2023-10-28T02:41:08.801Z,97859.41
2023-10-28T02:42:10.521Z,97855.69
2023-10-28T02:43:12.118Z,97859.69
2023-10-28T02:44:13.755Z,97861.28
2023-10-28T02:45:15.674Z,97849.31
2023-10-28T02:46:24.592Z,97846.13
2023-10-28T02:47:26.810Z,97844.53
2023-10-28T02:48:29.375Z,97846.13
2023-10-28T02:49:31.536Z,97846.41
2023-10-28T02:50:36.459Z,97835.22
2023-10-28T02:51:38.401Z,97834.44
2023-10-28T02:52:39.970Z,97837.88
2023-10-28T02:53:41.606Z,97844.28
2023-10-28T02:54:43.186Z,97844.28
2023-10-28T02:55:44.828Z,97851.19
2023-10-28T02:56:46.367Z,97857.03
2023-10-28T02:57:47.993Z,97854.66
2023-10-28T02:58:50.225Z,97859.97
2023-10-28T02:59:51.785Z,97854.66
2023-10-28T03:00:56.336Z,97865.53
2023-10-28T03:01:58.747Z,97857.84
2023-10-28T03:03:00.533Z,97853.56
2023-10-28T03:04:02.150Z,97863.16
2023-10-28T03:05:06.233Z,97861.56
2023-10-28T03:06:08.199Z,97859.72
2023-10-28T03:07:09.843Z,97869.03
2023-10-28T03:08:11.532Z,97858.09
2023-10-28T03:09:13.559Z,97853.84
2023-10-28T03:10:15.262Z,97853.84
2023-10-28T03:11:16.869Z,97856.25
2023-10-28T03:12:18.899Z,97854.91
2023-10-28T03:13:20.472Z,97844.00
2023-10-28T03:14:22.080Z,97851.94
2023-10-28T03:15:25.864Z,97846.63
2023-10-28T03:16:27.703Z,97850.38
2023-10-28T03:17:29.462Z,97843.72
2023-10-28T03:18:31.172Z,97848.25
2023-10-28T03:19:32.775Z,97840.78
2023-10-28T03:20:34.466Z,97839.97
2023-10-28T03:21:36.080Z,97847.16
2023-10-28T03:22:37.958Z,97850.38
2023-10-28T03:23:39.586Z,97861.28
2023-10-28T03:24:41.162Z,97853.31
2023-10-28T03:25:42.841Z,97859.44
2023-10-28T03:26:44.408Z,97860.50
2023-10-28T03:27:47.182Z,97857.03
2023-10-28T03:28:50.684Z,97863.41
2023-10-28T03:29:53.419Z,97850.66
2023-10-28T03:30:55.045Z,97860.50
2023-10-28T03:31:56.615Z,97867.69
2023-10-28T03:32:58.672Z,97871.16
2023-10-28T03:34:00.765Z,97876.47
2023-10-28T03:35:02.560Z,97879.94
2023-10-28T03:36:06.043Z,97883.94
2023-10-28T03:37:07.735Z,97881.78
2023-10-28T03:38:10.571Z,97880.19
2023-10-28T03:39:12.699Z,97872.22
2023-10-28T03:40:14.716Z,97877.53
2023-10-28T03:41:16.467Z,97878.09
2023-10-28T03:42:18.095Z,97870.88
2023-10-28T03:43:19.732Z,97885.81
2023-10-28T03:44:21.669Z,97871.41
2023-10-28T03:45:23.384Z,97879.16
2023-10-28T03:46:26.438Z,97873.81
2023-10-28T03:47:30.467Z,97878.59
2023-10-28T03:48:32.499Z,97875.69
2023-10-28T03:49:34.454Z,97887.66
2023-10-28T03:50:36.633Z,97881.81
2023-10-28T03:51:39.784Z,97882.06
2023-10-28T03:52:41.489Z,97881.28
2023-10-28T03:53:43.197Z,97878.34
2023-10-28T03:54:44.782Z,97880.75
2023-10-28T03:55:46.376Z,97884.47
2023-10-28T03:56:48.836Z,97887.13
2023-10-28T03:57:50.420Z,97883.41
2023-10-28T03:58:52.543Z,97887.13
2023-10-28T03:59:54.306Z,97885.00
2023-10-28T04:00:56.038Z,97884.22
2023-10-28T04:01:57.807Z,97890.31
2023-10-28T04:02:59.409Z,97897.25
2023-10-28T04:04:00.958Z,97890.34
2023-10-28T04:05:02.619Z,97894.03
2023-10-28T04:06:07.454Z,97894.56
2023-10-28T04:07:09.420Z,97905.50
2023-10-28T04:08:11.083Z,97899.66
2023-10-28T04:09:15.252Z,97898.59
2023-10-28T04:10:16.863Z,97902.56
2023-10-28T04:11:18.489Z,97903.09
2023-10-28T04:12:20.084Z,97898.31
2023-10-28T04:13:21.848Z,97901.25
2023-10-28T04:14:24.252Z,97898.31
2023-10-28T04:15:26.452Z,97898.84
2023-10-28T04:16:28.152Z,97903.91
2023-10-28T04:17:32.887Z,97907.88
2023-10-28T04:18:34.669Z,97904.13
2023-10-28T04:19:36.263Z,97904.13
2023-10-28T04:20:39.071Z,97911.06
2023-10-28T04:21:40.818Z,97907.56
2023-10-28T04:22:42.404Z,97900.41
2023-10-28T04:23:44.489Z,97893.66
2023-10-28T04:24:46.223Z,97924.28
2023-10-28T04:25:47.873Z,97922.16
2023-10-28T04:26:49.536Z,97925.59
2023-10-28T04:27:51.907Z,97928.47
2023-10-28T04:28:53.575Z,97927.16
2023-10-28T04:29:55.587Z,97936.19
2023-10-28T04:30:58.159Z,97938.84
2023-10-28T04:31:59.813Z,97933.75
2023-10-28T04:33:01.608Z,97941.97
2023-10-28T04:34:04.526Z,97939.00
2023-10-28T04:35:15.652Z,97943.00
2023-10-28T04:36:28.317Z,97941.94
2023-10-28T04:37:29.955Z,97937.31
2023-10-28T04:38:31.572Z,97947.13
2023-10-28T04:39:33.163Z,97953.75
2023-10-28T04:40:37.174Z,97956.88
2023-10-28T04:41:38.750Z,97942.72
2023-10-28T04:42:40.366Z,97949.88
2023-10-28T04:43:41.972Z,97952.28
2023-10-28T04:44:44.738Z,97951.47
2023-10-28T04:45:46.719Z,97952.44
2023-10-28T04:46:48.336Z,97956.41
2023-10-28T04:47:50.411Z,97958.81
2023-10-28T04:48:52.005Z,97947.06
2023-10-28T04:49:53.654Z,97948.38
2023-10-28T04:50:55.688Z,97932.56
2023-10-28T04:51:57.471Z,97941.31
2023-10-28T04:52:59.076Z,97953.72
2023-10-28T04:54:00.667Z,97943.81
2023-10-28T04:55:02.282Z,97952.53
2023-10-28T04:56:04.125Z,97951.72
2023-10-28T04:57:05.793Z,97954.69
2023-10-28T04:58:07.530Z,97967.78
2023-10-28T04:59:11.271Z,97955.03
2023-10-28T05:00:14.746Z,97971.56
2023-10-28T05:01:16.432Z,97967.34
2023-10-28T05:02:18.051Z,97964.16
2023-10-28T05:03:21.276Z,97969.72
2023-10-28T05:04:26.579Z,97963.34
2023-10-28T05:05:28.186Z,97963.63
2023-10-28T05:06:30.104Z,97969.47
2023-10-28T05:07:31.744Z,97967.53
2023-10-28T05:08:33.521Z,97969.47
2023-10-28T05:09:37.278Z,97966.81
2023-10-28T05:10:38.885Z,97973.97
2023-10-28T05:11:40.459Z,97961.94
2023-10-28T05:12:42.170Z,97977.84
2023-10-28T05:13:44.069Z,97974.78
2023-10-28T05:14:48.496Z,97976.09
2023-10-28T05:15:50.115Z,97982.22
2023-10-28T05:16:53.944Z,97975.59
2023-10-28T05:17:55.651Z,97973.25
2023-10-28T05:18:57.591Z,97974.03
2023-10-28T05:19:59.254Z,97966.38
2023-10-28T05:21:00.919Z,97976.47
2023-10-28T05:22:04.905Z,97983.16
2023-10-28T05:23:06.495Z,97984.06
2023-10-28T05:24:08.574Z,97991.22
2023-10-28T05:25:10.655Z,98004.31
2023-10-28T05:26:12.314Z,97991.28
2023-10-28T05:27:14.038Z,97998.81
2023-10-28T05:28:15.803Z,97997.00
2023-10-28T05:29:17.718Z,98002.09
2023-10-28T05:30:19.504Z,98007.91
2023-10-28T05:31:22.390Z,98010.56
2023-10-28T05:32:24.178Z,98010.53
2023-10-28T05:33:25.982Z,98011.06
2023-10-28T05:34:27.557Z,98011.16
2023-10-28T05:35:29.168Z,98013.88
2023-10-28T05:36:30.788Z,98016.31
2023-10-28T05:37:32.400Z,98013.44
2023-10-28T05:38:34.038Z,98022.53
2023-10-28T05:39:35.656Z,98025.72
2023-10-28T05:40:37.294Z,98024.13
2023-10-28T05:41:38.926Z,98026.25
2023-10-28T05:42:41.793Z,98017.69
2023-10-28T05:43:43.428Z,98029.94
2023-10-28T05:44:45.130Z,98017.75
2023-10-28T05:45:46.802Z,98021.53
2023-10-28T05:46:48.561Z,98014.38
2023-10-28T05:47:50.236Z,98024.56
2023-10-28T05:48:52.140Z,98042.75
2023-10-28T05:49:54.219Z,98038.00
2023-10-28T05:50:59.166Z,98037.22
2023-10-28T05:52:01.216Z,98046.88
2023-10-28T05:53:02.854Z,98037.28
2023-10-28T05:54:05.369Z,98043.72
2023-10-28T05:55:08.469Z,98044.25
2023-10-28T05:56:10.123Z,98046.69
2023-10-28T05:57:11.715Z,98037.09
2023-10-28T05:58:13.342Z,98049.38
2023-10-28T05:59:16.056Z,98044.84
2023-10-28T06:00:18.039Z,98055.03
2023-10-28T06:01:19.655Z,98056.63
2023-10-28T06:02:21.451Z,98065.13
2023-10-28T06:03:23.226Z,98065.13
2023-10-28T06:04:24.906Z,98067.25
2023-10-28T06:05:26.806Z,98069.38
2023-10-28T06:06:32.132Z,98071.22
2023-10-28T06:07:34.298Z,98070.66
2023-10-28T06:08:35.921Z,98069.31
2023-10-28T06:09:37.555Z,98069.81
2023-10-28T06:10:39.167Z,98074.09
2023-10-28T06:11:41.289Z,98071.94
2023-10-28T06:12:43.089Z,98075.16
2023-10-28T06:13:44.699Z,98077.50
2023-10-28T06:14:46.420Z,98074.56
2023-10-28T06:15:48.117Z,98069.50
2023-10-28T06:16:50.700Z,98071.59
2023-10-28T06:17:52.402Z,98068.63
2023-10-28T06:18:56.673Z,98070.47
2023-10-28T06:19:58.290Z,98076.81
2023-10-28T06:20:59.849Z,98076.53
2023-10-28T06:22:01.990Z,98073.84
2023-10-28T06:23:07.522Z,98079.94
2023-10-28T06:24:09.470Z,98074.88
2023-10-28T06:25:11.124Z,98075.09
2023-10-28T06:26:12.726Z,98076.34
2023-10-28T06:27:14.274Z,98070.69
2023-10-28T06:28:15.895Z,98068.00
2023-10-28T06:29:17.529Z,98071.44
2023-10-28T06:30:19.238Z,98057.31
2023-10-28T06:31:21.736Z,98090.00
2023-10-28T06:32:23.427Z,98085.94
2023-10-28T06:33:25.532Z,98075.53
2023-10-28T06:34:30.190Z,98089.66
2023-10-28T06:35:31.839Z,98094.13
2023-10-28T06:36:34.631Z,98098.13
2023-10-28T06:37:40.878Z,98093.59
2023-10-28T06:38:42.545Z,98104.75
2023-10-28T06:39:48.876Z,98106.31
2023-10-28T06:40:51.756Z,98100.41
2023-10-28T06:41:53.386Z,98105.19
2023-10-28T06:42:54.989Z,98115.31
2023-10-28T06:43:59.029Z,98110.22
2023-10-28T06:45:00.649Z,98116.34
2023-10-28T06:46:02.267Z,98116.81
2023-10-28T06:47:04.616Z,98119.44
2023-10-28T06:48:06.342Z,98127.69
2023-10-28T06:49:09.583Z,98123.09
2023-10-28T06:50:11.227Z,98125.66
2023-10-28T06:51:14.030Z,98126.06
2023-10-28T06:52:15.594Z,98129.38
2023-10-28T06:53:17.265Z,98137.00
2023-10-28T06:54:19.906Z,98140.00
2023-10-28T06:55:21.670Z,98151.06
2023-10-28T06:56:23.344Z,98155.13
2023-10-28T06:57:24.952Z,98152.88
2023-10-28T06:58:26.776Z,98147.00
2023-10-28T06:59:28.339Z,98150.59
2023-10-28T07:00:30.066Z,98151.16
2023-10-28T07:01:31.788Z,98143.44
2023-10-28T07:02:33.818Z,98148.56
2023-10-28T07:03:35.642Z,98147.50
2023-10-28T07:04:37.302Z,98152.28
2023-10-28T07:05:39.942Z,98155.16
2023-10-28T07:06:42.573Z,98154.22
2023-10-28T07:07:46.117Z,98154.03
2023-10-28T07:08:47.820Z,98151.31
2023-10-28T07:09:49.888Z,98154.69
2023-10-28T07:10:51.674Z,98162.31
2023-10-28T07:11:54.316Z,98152.72
2023-10-28T07:12:56.006Z,98146.44
2023-10-28T07:13:57.623Z,98155.19
2023-10-28T07:15:01.040Z,98156.28
2023-10-28T07:16:06.341Z,98152.22
2023-10-28T07:17:08.004Z,98155.41
2023-10-28T07:18:09.981Z,98163.16
2023-10-28T07:19:13.419Z,98156.13
2023-10-28T07:20:16.858Z,98156.84
2023-10-28T07:21:18.603Z,98154.50
2023-10-28T07:22:24.196Z,98149.88
2023-10-28T07:23:29.095Z,98151.78
2023-10-28T07:24:30.692Z,98151.06
2023-10-28T07:25:32.248Z,98147.91
2023-10-28T07:26:34.161Z,98151.06
2023-10-28T07:27:35.766Z,98148.22
2023-10-28T07:28:38.819Z,98138.06
2023-10-28T07:29:40.465Z,98132.25
2023-10-28T07:30:46.366Z,98139.09
2023-10-28T07:31:49.086Z,98144.06
2023-10-28T07:32:51.938Z,98137.72
2023-10-28T07:33:53.625Z,98139.22
2023-10-28T07:34:55.233Z,98135.50
2023-10-28T07:35:56.903Z,98141.25
2023-10-28T07:37:04.732Z,98134.53
2023-10-28T07:38:06.314Z,98131.06
2023-10-28T07:39:07.970Z,98135.09
2023-10-28T07:40:12.466Z,98144.41
2023-10-28T07:41:14.139Z,98139.41
2023-10-28T07:42:17.008Z,98146.34
2023-10-28T07:43:19.039Z,98149.88
2023-10-28T07:44:20.741Z,98154.16
2023-10-28T07:45:22.322Z,98160.50
2023-10-28T07:46:27.477Z,98126.47
2023-10-28T07:47:29.133Z,98155.72
2023-10-28T07:48:31.528Z,98165.09
2023-10-28T07:49:33.873Z,98156.47
2023-10-28T07:50:36.182Z,98168.19
2023-10-28T07:51:37.834Z,98157.97
2023-10-28T07:52:39.428Z,98160.75
2023-10-28T07:53:41.055Z,98163.00
2023-10-28T07:54:42.707Z,98156.22
2023-10-28T07:55:44.259Z,98153.75
2023-10-28T07:56:45.896Z,98158.78
2023-10-28T07:57:47.497Z,98161.53
2023-10-28T07:58:51.992Z,98161.13
2023-10-28T07:59:54.389Z,98161.38
2023-10-28T08:00:56.002Z,98174.19
2023-10-28T08:01:59.438Z,98168.91
2023-10-28T08:03:02.018Z,98166.66
2023-10-28T08:04:07.801Z,98169.06
2023-10-28T08:05:11.275Z,98167.56
2023-10-28T08:06:20.353Z,98183.63
2023-10-28T08:07:26.061Z,98171.91
2023-10-28T08:08:31.241Z,98172.28
2023-10-28T08:09:32.889Z,98179.19
2023-10-28T08:10:34.512Z,98178.38
2023-10-28T08:11:36.636Z,98176.91
2023-10-28T08:12:39.760Z,98166.13
2023-10-28T08:13:41.688Z,98162.28
2023-10-28T08:14:48.080Z,98162.34
2023-10-28T08:15:53.893Z,98158.94
2023-10-28T08:16:57.636Z,98163.31
2023-10-28T08:17:59.736Z,98157.03
2023-10-28T08:19:02.344Z,98161.78
2023-10-28T08:20:07.201Z,98162.94
2023-10-28T08:21:09.003Z,98167.25
2023-10-28T08:22:13.384Z,98168.41
2023-10-28T08:23:15.023Z,98171.53
2023-10-28T08:24:17.776Z,98175.03
2023-10-28T08:25:19.522Z,98172.63
2023-10-28T08:26:21.138Z,98168.75
2023-10-28T08:27:22.853Z,98168.75
2023-10-28T08:28:24.487Z,98167.16
2023-10-28T08:29:26.259Z,98170.72
2023-10-28T08:30:29.414Z,98171.84
2023-10-28T08:31:31.036Z,98174.19
2023-10-28T08:32:33.522Z,98180.88
2023-10-28T08:33:38.848Z,98176.59
2023-10-28T08:34:40.415Z,98172.75
2023-10-28T08:35:42.055Z,98166.09
2023-10-28T08:36:43.818Z,98173.09
2023-10-28T08:37:45.366Z,98174.28
2023-10-28T08:38:49.082Z,98173.91
2023-10-28T08:39:51.045Z,98175.72
2023-10-28T08:40:52.644Z,98176.78
2023-10-28T08:41:55.430Z,98176.34
2023-10-28T08:42:59.664Z,98178.69
2023-10-28T08:44:05.675Z,98174.94
2023-10-28T08:45:10.222Z,98178.59
2023-10-28T08:46:13.715Z,98172.38
2023-10-28T08:47:18.450Z,98174.72
2023-10-28T08:48:22.162Z,98173.53
2023-10-28T08:49:24.473Z,98168.06
2023-10-28T08:50:26.660Z,98171.19
2023-10-28T08:51:28.369Z,98175.91
2023-10-28T08:52:33.766Z,98174.72
2023-10-28T08:53:37.690Z,98172.38
2023-10-28T08:54:41.009Z,98184.53
2023-10-28T08:55:45.741Z,98183.34
2023-10-28T08:56:48.374Z,98176.69
2023-10-28T08:57:50.113Z,98180.22
2023-10-28T08:58:53.595Z,98175.13
2023-10-28T08:59:55.389Z,98175.09
2023-10-28T09:01:00.794Z,98169.94
2023-10-28T09:02:09.153Z,98168.31
2023-10-28T09:03:12.824Z,98171.00
2023-10-28T09:04:16.337Z,98168.63
2023-10-28T09:05:18.173Z,98162.69
2023-10-28T09:06:20.900Z,98162.47
2023-10-28T09:07:22.490Z,98168.41
2023-10-28T09:08:24.935Z,98168.38
2023-10-28T09:09:29.054Z,98162.53
2023-10-28T09:10:31.280Z,98164.91
2023-10-28T09:11:33.437Z,98164.91
2023-10-28T09:12:35.628Z,98167.25
2023-10-28T09:13:38.147Z,98164.50
2023-10-28T09:14:40.133Z,98164.53
2023-10-28T09:15:41.896Z,98157.44
2023-10-28T09:16:43.555Z,98146.81
2023-10-28T09:17:45.285Z,98144.41
2023-10-28T09:18:46.883Z,98149.94
2023-10-28T09:19:48.615Z,98151.91
2023-10-28T09:20:50.397Z,98159.00
2023-10-28T09:21:53.180Z,98154.22
2023-10-28T09:22:54.801Z,98157.00
2023-10-28T09:24:01.606Z,98155.41
2023-10-28T09:25:04.474Z,98155.81
2023-10-28T09:26:06.864Z,98159.00
2023-10-28T09:27:11.434Z,98160.59
2023-10-28T09:28:17.201Z,98159.78
2023-10-28T09:29:26.710Z,98157.41
2023-10-28T09:30:29.716Z,98155.44
2023-10-28T09:31:31.699Z,98146.78
2023-10-28T09:32:37.054Z,98157.03
2023-10-28T09:33:39.418Z,98153.13
2023-10-28T09:34:42.695Z,98154.31
2023-10-28T09:35:46.662Z,98148.41
2023-10-28T09:36:51.463Z,98154.69
2023-10-28T09:37:55.040Z,98146.44
2023-10-28T09:38:57.188Z,98151.50
2023-10-28T09:39:59.865Z,98150.78
2023-10-28T09:41:03.173Z,98146.47
2023-10-28T09:42:05.591Z,98151.94
2023-10-28T09:43:08.389Z,98149.41
2023-10-28T09:44:11.422Z,98148.84
2023-10-28T09:45:13.027Z,98147.28
2023-10-28T09:46:21.381Z,98146.19
2023-10-28T09:47:23.873Z,98150.59
2023-10-28T09:48:32.989Z,98145.91
2023-10-28T09:49:40.701Z,98144.72
2023-10-28T09:50:50.407Z,98139.59
2023-10-28T09:51:57.583Z,98141.22
2023-10-28T09:52:59.533Z,98149.13
2023-10-28T09:54:06.658Z,98142.78
2023-10-28T09:55:12.386Z,98132.50
2023-10-28T09:56:14.520Z,98137.56
2023-10-28T09:57:17.873Z,98136.31
2023-10-28T09:58:21.427Z,98135.84
2023-10-28T09:59:27.363Z,98136.69
2023-10-28T10:00:32.012Z,98131.56
2023-10-28T10:02:02.909Z,98130.53
2023-10-28T10:03:29.946Z,98125.03
2023-10-28T10:04:45.643Z,98130.97
2023-10-28T10:05:48.491Z,98129.13
2023-10-28T10:06:50.299Z,98126.31
2023-10-28T10:07:53.773Z,98120.88
2023-10-28T10:08:56.487Z,98126.78
2023-10-28T10:10:11.288Z,98123.50
2023-10-28T10:11:13.010Z,98120.81
2023-10-28T10:12:14.839Z,98124.69
2023-10-28T10:13:16.880Z,98116.09
2023-10-28T10:14:21.151Z,98128.31
2023-10-28T10:15:23.860Z,98118.16
2023-10-28T10:16:43.257Z,98116.19
2023-10-28T10:18:12.030Z,98117.03
2023-10-28T10:19:21.832Z,98111.13
2023-10-28T10:20:27.324Z,98109.56
2023-10-28T10:21:33.878Z,98110.75
2023-10-28T10:22:36.635Z,98100.91
2023-10-28T10:23:45.590Z,98108.34
2023-10-28T10:24:50.901Z,98104.03
2023-10-28T10:25:55.781Z,98098.53
2023-10-28T10:26:59.550Z,98098.09
2023-10-28T10:28:27.396Z,98100.88
2023-10-28T10:29:41.502Z,98109.84
2023-10-28T10:30:46.405Z,98100.31
2023-10-28T10:31:58.703Z,98107.63
2023-10-28T10:33:05.055Z,98103.34
2023-10-28T10:34:08.764Z,98095.09
2023-10-28T10:35:33.099Z,98081.81
2023-10-28T10:36:47.985Z,98090.97
2023-10-28T10:38:10.535Z,98106.84
2023-10-28T10:39:16.081Z,98095.09
2023-10-28T10:40:22.505Z,98100.44
2023-10-28T10:41:29.348Z,98098.13
2023-10-28T10:42:31.330Z,98100.06
2023-10-28T10:43:33.606Z,98103.09
2023-10-28T10:44:40.417Z,98097.41
2023-10-28T10:45:42.555Z,98100.53
2023-10-28T10:46:44.518Z,98092.13
2023-10-28T10:47:47.767Z,98096.09
2023-10-28T10:48:49.861Z,98097.25
2023-10-28T10:49:51.543Z,98091.13
2023-10-28T10:50:53.363Z,98090.16
2023-10-28T10:51:55.054Z,98087.97
2023-10-28T10:52:57.843Z,98094.88
2023-10-28T10:53:59.430Z,98086.59
2023-10-28T10:55:01.967Z,98084.81
2023-10-28T10:56:03.768Z,98091.69
2023-10-28T10:57:07.487Z,98082.97
2023-10-28T10:58:09.121Z,98080.06
2023-10-28T10:59:10.969Z,98077.34
2023-10-28T11:00:13.817Z,98075.94
2023-10-28T11:01:16.563Z,98072.94
2023-10-28T11:02:18.940Z,98077.28
2023-10-28T11:03:22.972Z,98071.16
2023-10-28T11:04:32.142Z,98076.50
2023-10-28T11:05:33.839Z,98080.34
2023-10-28T11:06:36.667Z,98078.81
2023-10-28T11:07:38.241Z,98083.91
2023-10-28T11:08:40.968Z,98077.03
2023-10-28T11:09:43.353Z,98079.78
2023-10-28T11:10:47.238Z,98090.31
2023-10-28T11:11:49.216Z,98073.88
2023-10-28T11:12:51.576Z,98084.38
2023-10-28T11:13:53.545Z,98090.75
2023-10-28T11:14:56.116Z,98078.44
2023-10-28T11:15:58.552Z,98082.78
2023-10-28T11:17:01.219Z,98084.97
2023-10-28T11:18:03.205Z,98082.22
2023-10-28T11:19:06.119Z,98069.91
2023-10-28T11:20:11.091Z,98079.78
2023-10-28T11:21:15.687Z,98082.03
2023-10-28T11:22:18.486Z,98074.56
2023-10-28T11:23:21.150Z,98072.53
2023-10-28T11:24:23.858Z,98070.75
2023-10-28T11:25:33.106Z,98076.63
2023-10-28T11:26:36.260Z,98082.38
2023-10-28T11:27:39.406Z,98077.41
2023-10-28T11:28:40.987Z,98074.34
2023-10-28T11:29:42.750Z,98079.09
2023-10-28T11:30:52.177Z,98077.06
2023-10-28T11:31:54.242Z,98065.41
2023-10-28T11:32:56.053Z,98074.38
2023-10-28T11:34:03.075Z,98068.69
2023-10-28T11:35:04.995Z,98071.88
2023-10-28T11:36:07.297Z,98073.91
2023-10-28T11:37:10.255Z,98066.91
2023-10-28T11:38:12.049Z,98074.91
2023-10-28T11:39:16.954Z,98071.53
2023-10-28T11:40:22.305Z,98068.00
2023-10-28T11:41:26.239Z,98070.75
2023-10-28T11:42:28.644Z,98076.41
2023-10-28T11:43:30.237Z,98069.56
2023-10-28T11:44:32.015Z,98070.16
2023-10-28T11:45:33.730Z,98070.16
2023-10-28T11:46:35.392Z,98072.50
2023-10-28T11:47:37.100Z,98064.16
2023-10-28T11:48:39.298Z,98073.00
2023-10-28T11:49:40.907Z,98072.31
2023-10-28T11:50:44.498Z,98063.38
2023-10-28T11:51:46.343Z,98071.75
2023-10-28T11:52:50.606Z,98071.97
2023-10-28T11:53:52.834Z,98075.66
2023-10-28T11:54:54.898Z,98070.44
2023-10-28T11:55:56.857Z,98070.78
2023-10-28T11:56:58.433Z,98069.28
2023-10-28T11:58:00.051Z,98073.03
2023-10-28T11:59:02.851Z,98074.31
2023-10-28T12:00:08.243Z,98067.28
2023-10-28T12:01:09.958Z,98072.47
2023-10-28T12:02:11.634Z,98070.56
2023-10-28T12:03:14.294Z,98080.06
2023-10-28T12:04:16.345Z,98074.53
2023-10-28T12:05:17.991Z,98070.09
2023-10-28T12:06:29.482Z,98077.22
2023-10-28T12:07:32.144Z,98076.28
2023-10-28T12:08:34.297Z,98071.19
2023-10-28T12:09:38.702Z,98072.91
2023-10-28T12:10:44.539Z,98072.59
2023-10-28T12:11:47.415Z,98073.84
2023-10-28T12:12:49.065Z,98063.19
2023-10-28T12:13:50.639Z,98077.81
2023-10-28T12:14:52.231Z,98080.28
2023-10-28T12:15:53.875Z,98076.91
2023-10-28T12:16:55.460Z,98081.75
2023-10-28T12:17:57.087Z,98078.84
2023-10-28T12:18:58.833Z,98083.25
2023-10-28T12:20:00.413Z,98079.72